createdAt,value
2022-09-03T00:01:58.029Z,13.08
2022-09-03T00:04:38.487Z,13.07
2022-09-03T00:07:16.804Z,13.02
2022-09-03T00:09:52.701Z,13.05
2022-09-03T00:12:26.701Z,12.94
2022-09-03T00:15:06.698Z,12.92
2022-09-03T00:17:44.296Z,12.88
2022-09-03T00:20:20.253Z,12.90
2022-09-03T00:22:52.786Z,12.74
2022-09-03T00:25:28.010Z,12.72
2022-09-03T00:28:00.986Z,12.71
2022-09-03T00:30:37.623Z,12.64
2022-09-03T00:33:12.262Z,11.60
2022-09-03T00:35:49.743Z,11.85
2022-09-03T00:38:21.095Z,12.40
2022-09-03T00:41:09.071Z,12.49
2022-09-03T00:44:04.204Z,12.42
2022-09-03T00:46:50.656Z,12.47
2022-09-03T00:49:35.541Z,12.41
2022-09-03T00:52:19.124Z,12.33
2022-09-03T00:55:13.778Z,12.27
2022-09-03T00:58:05.702Z,11.63
2022-09-03T01:00:34.802Z,12.20
2022-09-03T01:03:10.561Z,11.97
2022-09-03T01:06:09.300Z,12.02
2022-09-03T01:09:12.378Z,12.13
2022-09-03T01:11:59.543Z,11.00
2022-09-03T01:14:52.727Z,12.21
2022-09-03T01:17:40.494Z,12.08
2022-09-03T01:20:39.264Z,11.34
2022-09-03T01:23:45.269Z,11.99
2022-09-03T01:26:52.892Z,11.25
2022-09-03T01:29:32.290Z,12.05
2022-09-03T01:32:11.341Z,11.98
2022-09-03T01:34:54.183Z,11.85
2022-09-03T01:37:38.995Z,11.04
2022-09-03T01:40:22.619Z,11.77
2022-09-03T01:43:14.430Z,11.83
2022-09-03T01:45:55.251Z,10.68
2022-09-03T01:48:47.834Z,11.52
2022-09-03T01:51:23.690Z,11.59
2022-09-03T01:54:36.269Z,11.39
2022-09-03T01:57:35.214Z,11.55
2022-09-03T02:00:11.816Z,11.10
2022-09-03T02:02:43.532Z,11.46
2022-09-03T02:05:17.252Z,11.16
2022-09-03T02:07:51.909Z,10.62
2022-09-03T02:10:23.761Z,11.40
2022-09-03T02:12:57.962Z,11.35
2022-09-03T02:15:31.484Z,11.26
2022-09-03T02:18:07.469Z,11.08
2022-09-03T02:20:39.463Z,11.26
2022-09-03T02:23:08.598Z,11.27
2022-09-03T02:25:42.745Z,9.90
2022-09-03T02:28:27.405Z,10.96
2022-09-03T02:30:57.149Z,11.25
2022-09-03T02:33:28.155Z,11.24
2022-09-03T02:36:01.867Z,11.24
2022-09-03T02:38:30.861Z,11.15
2022-09-03T02:41:05.434Z,11.07
2022-09-03T02:43:43.505Z,10.92
2022-09-03T02:46:22.806Z,10.67
2022-09-03T02:48:53.243Z,11.17
2022-09-03T02:51:22.439Z,11.09
2022-09-03T02:53:51.346Z,11.04
2022-09-03T02:56:20.305Z,10.98
2022-09-03T02:58:49.280Z,11.00
2022-09-03T03:01:25.475Z,10.93
2022-09-03T03:03:57.786Z,10.92
2022-09-03T03:06:30.887Z,10.86
2022-09-03T03:09:10.507Z,10.81
2022-09-03T03:11:40.256Z,10.83
2022-09-03T03:14:09.187Z,10.80
2022-09-03T03:16:38.194Z,10.80
2022-09-03T03:19:11.024Z,10.78
2022-09-03T03:21:40.322Z,10.77
2022-09-03T03:24:09.804Z,10.82
2022-09-03T03:26:38.814Z,10.83
2022-09-03T03:29:07.720Z,10.94
2022-09-03T03:31:39.083Z,10.99
2022-09-03T03:34:09.414Z,11.03
2022-09-03T03:36:39.078Z,11.04
2022-09-03T03:39:07.902Z,11.04
2022-09-03T03:41:40.411Z,11.01
2022-09-03T03:44:10.301Z,11.04
2022-09-03T03:46:42.336Z,11.04
2022-09-03T03:49:12.634Z,11.00
2022-09-03T03:51:41.910Z,10.93
2022-09-03T03:54:10.790Z,10.80
2022-09-03T03:56:41.868Z,10.77
2022-09-03T03:59:10.987Z,10.72
2022-09-03T04:01:39.900Z,10.71
2022-09-03T04:04:08.963Z,10.68
2022-09-03T04:06:40.289Z,10.78
2022-09-03T04:09:11.236Z,10.69
2022-09-03T04:11:40.226Z,10.61
2022-09-03T04:14:09.052Z,10.60
2022-09-03T04:16:38.115Z,10.58
2022-09-03T04:19:07.376Z,10.71
2022-09-03T04:21:41.099Z,10.72
2022-09-03T04:24:10.120Z,10.85
2022-09-03T04:26:39.807Z,10.96
2022-09-03T04:29:10.917Z,11.03
2022-09-03T04:32:00.652Z,11.07
2022-09-03T04:34:29.762Z,11.16
2022-09-03T04:37:00.166Z,11.24
2022-09-03T04:39:29.220Z,11.33
2022-09-03T04:42:04.222Z,11.41
2022-09-03T04:44:33.214Z,11.47
2022-09-03T04:47:39.114Z,11.52
2022-09-03T04:50:09.168Z,11.62
2022-09-03T04:52:57.650Z,11.68
2022-09-03T04:55:29.429Z,11.79
2022-09-03T04:58:04.088Z,11.88
2022-09-03T05:00:37.236Z,12.02
2022-09-03T05:03:08.877Z,12.14
2022-09-03T05:05:53.951Z,12.27
2022-09-03T05:08:25.618Z,12.25
2022-09-03T05:11:01.317Z,12.47
2022-09-03T05:13:34.651Z,12.55
2022-09-03T05:16:06.794Z,12.55
2022-09-03T05:18:36.791Z,12.76
2022-09-03T05:21:08.897Z,12.74
2022-09-03T05:23:41.169Z,12.97
2022-09-03T05:26:20.307Z,13.03
2022-09-03T05:28:56.059Z,13.06
2022-09-03T05:31:32.620Z,12.62
2022-09-03T05:34:10.233Z,13.13
2022-09-03T05:36:50.195Z,13.39
2022-09-03T05:39:20.552Z,13.60
2022-09-03T05:41:55.240Z,13.76
2022-09-03T05:44:24.208Z,13.88
2022-09-03T05:46:53.651Z,13.96
2022-09-03T05:49:22.589Z,14.02
2022-09-03T05:51:51.720Z,13.97
2022-09-03T05:54:22.178Z,13.92
2022-09-03T05:57:17.488Z,13.90
2022-09-03T05:59:51.325Z,13.92
2022-09-03T06:02:20.491Z,13.90
2022-09-03T06:04:53.919Z,13.92
2022-09-03T06:07:29.798Z,13.93
2022-09-03T06:10:00.431Z,13.93
2022-09-03T06:12:31.821Z,13.97
2022-09-03T06:15:02.064Z,13.97
2022-09-03T06:17:41.486Z,13.99
2022-09-03T06:20:12.456Z,14.05
2022-09-03T06:22:49.397Z,14.03
2022-09-03T06:25:22.796Z,14.00
2022-09-03T06:27:51.916Z,13.96
2022-09-03T06:30:25.412Z,14.00
2022-09-03T06:33:11.999Z,14.07
2022-09-03T06:35:44.231Z,14.07
2022-09-03T06:38:15.593Z,14.06
2022-09-03T06:40:50.687Z,14.07
2022-09-03T06:43:42.194Z,14.10
2022-09-03T06:46:14.226Z,14.08
2022-09-03T06:48:45.529Z,14.17
2022-09-03T06:51:18.290Z,14.08
2022-09-03T06:53:49.910Z,14.21
2022-09-03T06:56:26.480Z,14.29
2022-09-03T06:59:00.743Z,14.27
2022-09-03T07:01:32.541Z,14.08
2022-09-03T07:04:06.489Z,13.51
2022-09-03T07:06:43.195Z,14.48
2022-09-03T07:09:15.004Z,14.51
2022-09-03T07:11:48.786Z,14.59
2022-09-03T07:14:19.437Z,14.69
2022-09-03T07:16:49.344Z,14.69
2022-09-03T07:19:18.636Z,14.81
2022-09-03T07:21:50.444Z,14.84
2022-09-03T07:24:22.514Z,14.87
2022-09-03T07:26:53.093Z,14.94
2022-09-03T07:29:22.166Z,14.93
2022-09-03T07:31:57.015Z,14.87
2022-09-03T07:34:31.253Z,14.90
2022-09-03T07:37:02.223Z,15.15
2022-09-03T07:39:31.486Z,15.32
2022-09-03T07:42:02.393Z,15.40
2022-09-03T07:44:31.330Z,15.46
2022-09-03T07:47:00.846Z,15.53
2022-09-03T07:49:29.819Z,15.55
2022-09-03T07:51:58.441Z,15.65
2022-09-03T07:54:28.128Z,15.75
2022-09-03T07:56:56.915Z,15.82
2022-09-03T07:59:28.062Z,15.91
2022-09-03T08:01:57.815Z,15.99
2022-09-03T08:04:26.663Z,16.23
2022-09-03T08:06:57.095Z,16.28
2022-09-03T08:09:25.823Z,16.15
2022-09-03T08:11:54.642Z,16.45
2022-09-03T08:14:23.606Z,16.55
2022-09-03T08:16:53.970Z,16.69
2022-09-03T08:19:23.377Z,16.73
2022-09-03T08:21:52.275Z,16.76
2022-09-03T08:24:24.743Z,16.53
2022-09-03T08:26:53.608Z,16.93
2022-09-03T08:29:24.450Z,17.02
2022-09-03T08:31:54.972Z,17.11
2022-09-03T08:34:24.494Z,17.12
2022-09-03T08:36:54.397Z,17.31
2022-09-03T08:39:23.413Z,17.42
2022-09-03T08:42:29.966Z,17.35
2022-09-03T08:45:05.289Z,17.00
2022-09-03T08:47:50.592Z,17.61
2022-09-03T08:50:31.812Z,17.61
2022-09-03T08:53:09.830Z,17.64
2022-09-03T08:55:45.030Z,17.42
2022-09-03T08:58:22.787Z,17.73
2022-09-03T09:01:02.743Z,17.87
2022-09-03T09:03:57.525Z,17.10
2022-09-03T09:06:37.313Z,18.07
2022-09-03T09:09:24.679Z,18.17
2022-09-03T09:12:10.714Z,18.19
2022-09-03T09:15:13.302Z,18.29
2022-09-03T09:17:58.164Z,18.34
2022-09-03T09:20:41.773Z,18.38
2022-09-03T09:23:16.797Z,18.54
2022-09-03T09:25:51.758Z,18.69
2022-09-03T09:28:27.573Z,17.34
2022-09-03T09:30:59.162Z,18.80
2022-09-03T09:33:28.696Z,18.85
2022-09-03T09:36:03.214Z,17.79
2022-09-03T09:38:39.489Z,19.00
2022-09-03T09:41:13.770Z,19.11
2022-09-03T09:43:43.692Z,19.05
2022-09-03T09:46:18.193Z,18.93
2022-09-03T09:48:52.936Z,19.28
2022-09-03T09:51:25.842Z,19.37
2022-09-03T09:54:05.536Z,19.41
2022-09-03T09:56:34.301Z,19.30
2022-09-03T09:59:08.607Z,19.43
2022-09-03T10:01:41.244Z,19.48
2022-09-03T10:04:23.416Z,18.91
2022-09-03T10:07:01.406Z,19.51
2022-09-03T10:09:34.842Z,19.50
2022-09-03T10:12:19.977Z,20.26
2022-09-03T10:14:58.723Z,20.25
2022-09-03T10:17:49.804Z,19.75
2022-09-03T10:20:38.268Z,19.41
2022-09-03T10:23:23.085Z,20.50
2022-09-03T10:26:07.584Z,20.55
2022-09-03T10:28:41.668Z,20.60
2022-09-03T10:31:40.876Z,19.13
2022-09-03T10:34:28.424Z,20.79
2022-09-03T10:37:20.071Z,19.53
2022-09-03T10:40:25.106Z,20.02
2022-09-03T10:43:19.808Z,21.08
2022-09-03T10:46:06.497Z,21.06
2022-09-03T10:49:02.781Z,22.07
2022-09-03T10:51:37.972Z,22.04
2022-09-03T10:54:43.617Z,22.12
2022-09-03T10:57:31.376Z,21.91
2022-09-03T11:00:09.934Z,21.53
2022-09-03T11:03:25.754Z,21.20
2022-09-03T11:06:06.416Z,20.77
2022-09-03T11:08:44.892Z,20.60
2022-09-03T11:11:21.748Z,20.46
2022-09-03T11:14:00.057Z,21.68
2022-09-03T11:16:35.818Z,21.21
2022-09-03T11:19:14.545Z,21.13
2022-09-03T11:21:49.223Z,20.76
2022-09-03T11:24:24.568Z,19.91
2022-09-03T11:27:10.722Z,20.80
2022-09-03T11:29:54.631Z,21.52
2022-09-03T11:32:34.116Z,22.11
2022-09-03T11:35:03.180Z,21.35
2022-09-03T11:37:32.749Z,22.27
2022-09-03T11:40:11.952Z,22.34
2022-09-03T11:42:43.620Z,22.08
2022-09-03T11:45:25.964Z,22.53
2022-09-03T11:47:55.576Z,22.52
2022-09-03T11:50:30.222Z,20.97
2022-09-03T11:53:11.718Z,21.25
2022-09-03T11:55:58.694Z,22.85
2022-09-03T11:58:32.864Z,22.14
2022-09-03T12:01:10.616Z,21.76
2022-09-03T12:03:53.151Z,21.15
2022-09-03T12:06:49.186Z,21.04
2022-09-03T12:10:03.557Z,22.46
2022-09-03T12:13:05.967Z,22.58
2022-09-03T12:16:10.834Z,21.30
2022-09-03T12:19:02.877Z,20.79
2022-09-03T12:21:41.155Z,21.77
2022-09-03T12:24:18.234Z,22.95
2022-09-03T12:27:01.039Z,23.02
2022-09-03T12:29:43.452Z,22.89
2022-09-03T12:32:18.918Z,21.38
2022-09-03T12:34:59.619Z,22.52
2022-09-03T12:40:29.516Z,22.09
2022-09-03T12:46:33.574Z,23.12
2022-09-03T12:49:33.916Z,23.33
2022-09-03T12:52:33.306Z,22.86
2022-09-03T12:55:16.896Z,22.00
2022-09-03T12:58:04.631Z,21.41
2022-09-03T13:00:46.517Z,21.56
2022-09-03T13:03:25.771Z,21.49
2022-09-03T13:06:18.209Z,21.87
2022-09-03T13:08:56.981Z,20.48
2022-09-03T13:11:37.491Z,21.96
2022-09-03T13:14:16.533Z,22.32
2022-09-03T13:17:23.301Z,20.95
2022-09-03T13:20:23.085Z,22.25
2022-09-03T13:23:26.388Z,20.92
2022-09-03T13:26:24.268Z,21.57
2022-09-03T13:29:21.943Z,22.42
2022-09-03T13:31:56.435Z,22.33
2022-09-03T13:34:40.453Z,22.63
2022-09-03T13:37:26.417Z,22.58
2022-09-03T13:40:04.645Z,22.48
2022-09-03T13:42:40.738Z,22.99
2022-09-03T13:45:23.683Z,23.33
2022-09-03T13:48:21.573Z,23.60
2022-09-03T13:51:01.193Z,23.38
2022-09-03T13:54:00.394Z,23.29
2022-09-03T13:56:53.434Z,23.09
2022-09-03T13:59:36.499Z,23.21
2022-09-03T14:02:38.082Z,23.50
2022-09-03T14:08:36.863Z,23.89
2022-09-03T14:11:58.684Z,23.26
2022-09-03T14:15:16.300Z,22.95
2022-09-03T14:18:25.740Z,23.88
2022-09-03T14:21:17.565Z,24.52
2022-09-03T14:23:57.699Z,24.46
2022-09-03T14:26:40.002Z,24.13
2022-09-03T14:29:23.715Z,22.52
2022-09-03T14:32:39.273Z,22.98
2022-09-03T14:35:46.491Z,22.26
2022-09-03T14:38:56.528Z,21.56
2022-09-03T14:41:49.982Z,22.92
2022-09-03T14:44:38.999Z,23.23
2022-09-03T14:48:48.390Z,22.11
2022-09-03T14:51:19.969Z,23.47
2022-09-03T14:54:18.378Z,23.29
2022-09-03T14:57:33.789Z,21.95
2022-09-03T15:00:18.042Z,23.07
2022-09-03T15:03:33.093Z,22.64
2022-09-03T15:06:16.040Z,21.61
2022-09-03T15:09:02.401Z,21.56
2022-09-03T15:11:35.484Z,22.17
2022-09-03T15:14:15.436Z,22.08
2022-09-03T15:16:58.408Z,20.24
2022-09-03T15:19:59.263Z,21.53
2022-09-03T15:22:49.331Z,21.82
2022-09-03T15:25:32.064Z,20.79
2022-09-03T15:28:31.047Z,21.90
2022-09-03T15:31:36.523Z,21.38
2022-09-03T15:38:46.674Z,22.74
2022-09-03T15:41:41.812Z,22.60
2022-09-03T15:44:19.250Z,22.70
2022-09-03T15:47:00.570Z,22.69
2022-09-03T15:49:48.467Z,22.28
2022-09-03T15:52:33.680Z,22.59
2022-09-03T15:55:13.012Z,22.50
2022-09-03T15:57:53.084Z,22.28
2022-09-03T16:00:24.223Z,21.54
2022-09-03T16:03:02.455Z,22.26
2022-09-03T16:05:45.792Z,21.94
2022-09-03T16:08:25.812Z,22.32
2022-09-03T16:11:09.571Z,22.34
2022-09-03T16:13:59.897Z,21.85
2022-09-03T16:16:52.752Z,21.63
2022-09-03T16:19:31.507Z,21.93
2022-09-03T16:22:20.374Z,21.79
2022-09-03T16:25:02.602Z,20.84
2022-09-03T16:28:28.669Z,21.64
2022-09-03T16:31:41.123Z,21.48
2022-09-03T16:34:26.572Z,21.34
2022-09-03T16:37:09.700Z,20.82
2022-09-03T16:43:39.580Z,20.30
2022-09-03T16:46:24.326Z,20.56
2022-09-03T16:49:13.965Z,19.55
2022-09-03T16:51:59.918Z,20.69
2022-09-03T16:54:56.047Z,19.78
2022-09-03T16:57:46.094Z,20.89
2022-09-03T17:00:26.385Z,21.06
2022-09-03T17:03:35.036Z,20.70
2022-09-03T17:06:31.020Z,20.93
2022-09-03T17:09:22.295Z,20.92
2022-09-03T17:12:09.724Z,20.79
2022-09-03T17:15:05.352Z,20.58
2022-09-03T17:18:04.707Z,20.21
2022-09-03T17:20:53.955Z,20.05
2022-09-03T17:24:17.975Z,20.10
2022-09-03T17:27:04.269Z,20.00
2022-09-03T17:30:05.495Z,19.96
2022-09-03T17:33:05.037Z,19.67
2022-09-03T17:35:45.590Z,19.78
2022-09-03T17:39:08.133Z,19.63
2022-09-03T17:41:53.388Z,19.64
2022-09-03T17:45:04.458Z,19.55
2022-09-03T17:48:19.006Z,19.50
2022-09-03T17:50:57.437Z,19.43
2022-09-03T17:53:44.442Z,17.92
2022-09-03T17:56:29.466Z,19.17
2022-09-03T17:59:12.010Z,19.19
2022-09-03T18:02:05.133Z,19.04
2022-09-03T18:04:53.190Z,19.02
2022-09-03T18:07:30.632Z,18.95
2022-09-03T18:10:11.546Z,18.72
2022-09-03T18:12:57.956Z,18.62
2022-09-03T18:15:38.300Z,18.51
2022-09-03T18:18:30.233Z,18.39
2022-09-03T18:21:31.532Z,17.40
2022-09-03T18:24:50.619Z,18.27
2022-09-03T18:27:50.777Z,18.47
2022-09-03T18:30:37.949Z,18.39
2022-09-03T18:33:24.464Z,18.22
2022-09-03T18:36:11.203Z,18.02
2022-09-03T18:38:59.554Z,17.98
2022-09-03T18:42:05.558Z,17.97
2022-09-03T18:45:23.130Z,17.94
2022-09-03T18:48:30.260Z,17.83
2022-09-03T18:51:30.360Z,17.67
2022-09-03T18:55:03.804Z,17.47
2022-09-03T18:58:00.628Z,17.63
2022-09-03T19:00:58.122Z,17.05
2022-09-03T19:04:07.367Z,17.16
2022-09-03T19:07:04.079Z,17.28
2022-09-03T19:10:12.632Z,16.40
2022-09-03T19:13:24.782Z,17.53
2022-09-03T19:16:22.023Z,16.80
2022-09-03T19:19:40.051Z,17.42
2022-09-03T19:22:29.906Z,17.28
2022-09-03T19:25:24.453Z,17.40
2022-09-03T19:28:28.632Z,17.46
2022-09-03T19:31:47.586Z,17.64
2022-09-03T19:34:56.048Z,17.54
2022-09-03T19:37:51.214Z,17.50
2022-09-03T19:41:04.104Z,17.60
2022-09-03T19:44:11.023Z,17.62
2022-09-03T19:47:08.550Z,17.52
2022-09-03T19:50:14.743Z,17.31
2022-09-03T19:53:11.501Z,17.20
2022-09-03T19:56:38.019Z,16.71
2022-09-03T19:59:36.869Z,16.97
2022-09-03T20:02:23.370Z,17.17
2022-09-03T20:05:16.997Z,16.50
2022-09-03T20:08:06.142Z,17.08
2022-09-03T20:10:39.813Z,16.64
2022-09-03T20:13:14.952Z,15.55
2022-09-03T20:16:01.251Z,16.83
2022-09-03T20:18:46.620Z,17.08
2022-09-03T20:21:31.475Z,15.59
2022-09-03T20:24:21.552Z,15.30
2022-09-03T20:27:05.651Z,16.47
2022-09-03T20:29:59.925Z,16.41
2022-09-03T20:33:05.404Z,16.59
2022-09-03T20:36:00.537Z,16.38
2022-09-03T20:39:07.083Z,16.19
2022-09-03T20:41:46.811Z,14.69
2022-09-03T20:45:06.667Z,15.74
2022-09-03T20:48:07.246Z,16.31
2022-09-03T20:50:56.521Z,14.59
2022-09-03T20:54:00.161Z,15.64
2022-09-03T20:56:52.456Z,16.18
2022-09-03T20:59:44.801Z,14.59
2022-09-03T21:02:29.276Z,16.14
2022-09-03T21:05:15.360Z,16.16
2022-09-03T21:08:01.540Z,16.21
2022-09-03T21:10:38.504Z,16.15
2022-09-03T21:13:20.628Z,15.66
2022-09-03T21:16:00.094Z,15.28
2022-09-03T21:18:45.284Z,15.26
2022-09-03T21:21:25.509Z,15.14
2022-09-03T21:24:02.845Z,15.81
2022-09-03T21:26:40.022Z,15.97
2022-09-03T21:29:21.559Z,15.81
2022-09-03T21:32:01.789Z,15.80
2022-09-03T21:34:45.368Z,15.86
2022-09-03T21:37:16.037Z,15.24
2022-09-03T21:39:53.417Z,15.87
2022-09-03T21:42:36.659Z,15.46
2022-09-03T21:45:13.411Z,15.66
2022-09-03T21:47:50.905Z,15.46
2022-09-03T21:50:23.662Z,15.82
2022-09-03T21:52:57.255Z,15.85
2022-09-03T21:59:11.176Z,15.76
2022-09-03T22:02:20.788Z,15.82
2022-09-03T22:04:57.400Z,15.79
2022-09-03T22:08:17.132Z,14.18
2022-09-03T22:11:21.926Z,15.77
2022-09-03T22:14:28.576Z,15.67
2022-09-03T22:17:34.104Z,13.92
2022-09-03T22:20:23.649Z,15.53
2022-09-03T22:27:02.302Z,15.56
2022-09-03T22:30:28.053Z,15.53
2022-09-03T22:33:31.893Z,15.41
2022-09-03T22:36:24.758Z,15.38
2022-09-03T22:39:24.964Z,15.32
2022-09-03T22:46:24.649Z,14.39
2022-09-03T22:54:09.030Z,15.15
2022-09-03T22:57:00.664Z,15.10
2022-09-03T23:28:54.562Z,14.94
2022-09-03T23:31:26.431Z,14.97
2022-09-03T23:34:01.467Z,14.96
2022-09-03T23:37:10.466Z,15.02
2022-09-03T23:40:22.420Z,14.24
2022-09-03T23:46:26.374Z,14.97
2022-09-03T23:49:38.388Z,15.01
2022-09-03T23:52:49.812Z,13.40
2022-09-03T23:55:44.494Z,15.01
2022-09-03T23:58:42.434Z,15.05
